Time;durP1;ratioP1;P1;durP2;ratioP2;P2;SDS_P1;SDS_P2;PMS_P1;PMS_P2;Temp;Humidity;BMP_temperature;BMP_pressure;BME280_temperature;BME280_humidity;BME280_pressure;Samples;Min_cycle;Max_cycle;Signal;HPM_P1;HPM_P2
2023/08/25 00:02:08;;;;;;;1.17;1.00;;;;;;;;;;10293999;28;20055;-83
2023/08/25 00:07:11;;;;;;;2.07;1.10;;;;;;;;;;10296160;28;20643;-84
2023/08/25 00:12:16;;;;;;;1.40;1.13;;;;;;;;;;10300496;28;20046;-83
2023/08/25 00:17:19;;;;;;;2.78;1.08;;;;;;;;;;10315618;28;20185;-83
2023/08/25 00:22:23;;;;;;;2.60;1.25;;;;;;;;;;10301099;28;20141;-83
2023/08/25 00:27:27;;;;;;;1.38;1.13;;;;;;;;;;10303086;28;20484;-83
2023/08/25 00:32:31;;;;;;;1.27;0.98;;;;;;;;;;10318341;28;20060;-83
2023/08/25 00:37:35;;;;;;;1.73;1.30;;;;;;;;;;10300375;28;20057;-83
2023/08/25 00:42:40;;;;;;;2.03;1.08;;;;;;;;;;10298953;28;20120;-83
2023/08/25 00:47:43;;;;;;;1.63;0.80;;;;;;;;;;10301174;28;20459;-83
2023/08/25 00:52:46;;;;;;;2.55;0.88;;;;;;;;;;10299986;28;20563;-83
2023/08/25 00:57:52;;;;;;;1.00;0.90;;;;;;;;;;10316713;28;20057;-83
2023/08/25 01:02:55;;;;;;;1.83;1.05;;;;;;;;;;10332694;23;20955;-83
2023/08/25 01:07:59;;;;;;;3.65;1.25;;;;;;;;;;10293052;28;20140;-83
2023/08/25 01:13:11;;;;;;;2.05;1.00;;;;;;;;;;10300149;28;21544;-84
2023/08/25 01:18:18;;;;;;;1.00;0.98;;;;;;;;;;10282791;28;20050;-81
2023/08/25 01:23:32;;;;;;;1.15;0.80;;;;;;;;;;10286616;28;20050;-87
2023/08/25 01:28:40;;;;;;;3.85;1.33;;;;;;;;;;10306804;28;20314;-84
2023/08/25 01:33:45;;;;;;;1.20;0.95;;;;;;;;;;10316147;28;20054;-89
2023/08/25 01:38:56;;;;;;;3.70;1.02;;;;;;;;;;10275167;28;20059;-85
2023/08/25 01:44:04;;;;;;;2.55;0.80;;;;;;;;;;10313525;28;20440;-83
2023/08/25 01:49:10;;;;;;;1.75;1.20;;;;;;;;;;10280508;28;20050;-83
2023/08/25 01:54:13;;;;;;;1.23;0.90;;;;;;;;;;10288608;28;20054;-85
2023/08/25 01:59:18;;;;;;;0.88;0.80;;;;;;;;;;10300836;28;20055;-83
2023/08/25 02:04:21;;;;;;;1.65;1.08;;;;;;;;;;10291748;28;20641;-88
2023/08/25 02:09:25;;;;;;;1.95;0.82;;;;;;;;;;10295863;28;20104;-84
2023/08/25 02:14:30;;;;;;;6.95;1.30;;;;;;;;;;10295987;28;20451;-88
2023/08/25 02:19:36;;;;;;;1.02;0.93;;;;;;;;;;10299210;28;20049;-84
2023/08/25 02:24:39;;;;;;;1.10;0.98;;;;;;;;;;10306025;28;20051;-84
2023/08/25 02:29:44;;;;;;;1.77;0.90;;;;;;;;;;10286910;28;20055;-85
2023/08/25 02:34:47;;;;;;;2.58;0.98;;;;;;;;;;10288129;28;20039;-87
2023/08/25 02:39:51;;;;;;;1.30;0.90;;;;;;;;;;10295029;28;20073;-84
2023/08/25 02:44:56;;;;;;;0.80;0.80;;;;;;;;;;10297064;28;20038;-84
2023/08/25 02:49:59;;;;;;;2.72;1.00;;;;;;;;;;10295928;28;20046;-84
2023/08/25 02:55:05;;;;;;;1.05;0.80;;;;;;;;;;10310996;28;20554;-86
2023/08/25 03:00:11;;;;;;;0.93;0.67;;;;;;;;;;10305025;28;20102;-86
2023/08/25 03:05:14;;;;;;;0.70;0.70;;;;;;;;;;10297423;28;20436;-87
2023/08/25 03:10:18;;;;;;;1.73;1.02;;;;;;;;;;10290587;28;20064;-86
2023/08/25 03:15:23;;;;;;;1.98;0.88;;;;;;;;;;10292637;28;20780;-84
2023/08/25 03:20:26;;;;;;;1.02;0.90;;;;;;;;;;10293844;28;20135;-87
2023/08/25 03:25:31;;;;;;;1.60;1.02;;;;;;;;;;10300059;28;20054;-85
2023/08/25 03:30:37;;;;;;;1.40;1.10;;;;;;;;;;10285312;28;20812;-82
2023/08/25 03:35:42;;;;;;;2.40;1.08;;;;;;;;;;10286165;28;20113;-82
2023/08/25 03:40:46;;;;;;;1.55;1.00;;;;;;;;;;10270584;28;20125;-82
2023/08/25 03:45:50;;;;;;;2.25;0.90;;;;;;;;;;10277451;28;20042;-82
2023/08/25 03:50:54;;;;;;;1.27;1.05;;;;;;;;;;10300922;28;20061;-82
2023/08/25 03:55:57;;;;;;;1.30;0.80;;;;;;;;;;10294648;28;20038;-82
2023/08/25 04:01:03;;;;;;;0.85;0.77;;;;;;;;;;10293735;28;20043;-82
2023/08/25 04:06:07;;;;;;;1.02;0.93;;;;;;;;;;10286675;28;20046;-83
2023/08/25 04:11:10;;;;;;;0.73;0.63;;;;;;;;;;10301104;28;20046;-84
2023/08/25 04:16:15;;;;;;;1.98;0.90;;;;;;;;;;10299247;28;20069;-90
2023/08/25 04:21:18;;;;;;;1.10;0.80;;;;;;;;;;10306532;28;20130;-88
2023/08/25 04:26:22;;;;;;;1.35;0.80;;;;;;;;;;10312235;28;20056;-90
2023/08/25 04:31:27;;;;;;;1.10;1.00;;;;;;;;;;10300791;28;20468;-84
2023/08/25 04:36:36;;;;;;;2.63;0.70;;;;;;;;;;10292116;28;20066;-84
2023/08/25 04:41:39;;;;;;;1.23;0.95;;;;;;;;;;10300099;28;20061;-85
2023/08/25 04:46:47;;;;;;;1.95;1.08;;;;;;;;;;10292326;28;20585;-83
2023/08/25 04:51:51;;;;;;;0.75;0.52;;;;;;;;;;10300258;28;20094;-84
2023/08/25 04:56:55;;;;;;;3.60;1.48;;;;;;;;;;10294172;28;20043;-86
2023/08/25 05:02:00;;;;;;;1.30;0.90;;;;;;;;;;10309211;28;20504;-87
2023/08/25 05:07:04;;;;;;;2.13;1.10;;;;;;;;;;10326600;28;20043;-87
2023/08/25 05:12:09;;;;;;;1.48;1.17;;;;;;;;;;10310117;28;20289;-88
2023/08/25 05:17:15;;;;;;;2.58;1.00;;;;;;;;;;10297501;28;20563;-89
2023/08/25 05:22:21;;;;;;;1.23;0.95;;;;;;;;;;10293716;28;20467;-88
2023/08/25 05:27:25;;;;;;;1.60;1.23;;;;;;;;;;10303318;28;20133;-87
2023/08/25 05:32:33;;;;;;;1.48;1.23;;;;;;;;;;10291809;28;20049;-86
2023/08/25 05:37:55;;;;;;;2.03;1.48;;;;;;;;;;10307805;28;20058;-86
2023/08/25 05:42:58;;;;;;;3.13;1.52;;;;;;;;;;10297614;28;20535;-86
2023/08/25 05:48:03;;;;;;;2.05;1.33;;;;;;;;;;10300871;28;20530;-86
2023/08/25 05:53:07;;;;;;;1.38;1.20;;;;;;;;;;10300528;28;20504;-86
2023/08/25 05:58:11;;;;;;;6.72;1.92;;;;;;;;;;10291465;28;20054;-85
2023/08/25 06:03:18;;;;;;;1.40;1.17;;;;;;;;;;10307897;28;20077;-85
2023/08/25 06:08:22;;;;;;;1.80;1.40;;;;;;;;;;10296407;28;20086;-86
2023/08/25 06:13:25;;;;;;;1.48;1.33;;;;;;;;;;10298378;28;20050;-86
2023/08/25 06:18:30;;;;;;;1.58;1.40;;;;;;;;;;10308133;28;20050;-88
2023/08/25 06:23:33;;;;;;;1.35;1.10;;;;;;;;;;10291688;28;20283;-85
2023/08/25 06:28:37;;;;;;;2.40;1.30;;;;;;;;;;10278668;28;20465;-86
2023/08/25 06:33:41;;;;;;;1.38;1.20;;;;;;;;;;10301306;28;20632;-86
2023/08/25 06:38:45;;;;;;;1.70;1.38;;;;;;;;;;10292077;28;20133;-86
2023/08/25 06:43:57;;;;;;;1.77;1.27;;;;;;;;;;10287836;28;20046;-87
2023/08/25 06:49:02;;;;;;;15.32;2.78;;;;;;;;;;10298564;28;20482;-88
2023/08/25 06:54:05;;;;;;;1.70;1.15;;;;;;;;;;10295290;28;20039;-85
2023/08/25 06:59:13;;;;;;;1.83;1.27;;;;;;;;;;10295351;28;20058;-85
2023/08/25 07:04:19;;;;;;;1.83;1.15;;;;;;;;;;10437109;23;20054;-83
2023/08/25 07:09:22;;;;;;;;;;;;;;;;;;10292462;28;20061;-83
2023/08/25 07:14:27;;;;;;;32.65;4.22;;;;;;;;;;10282007;28;19941;-83
2023/08/25 07:19:32;;;;;;;1.87;0.90;;;;;;;;;;10301049;28;20050;-83
2023/08/25 07:24:36;;;;;;;1.70;1.10;;;;;;;;;;10275232;28;20082;-82
2023/08/25 07:29:39;;;;;;;5.88;1.80;;;;;;;;;;10276109;28;20145;-83
2023/08/25 07:34:46;;;;;;;1.45;1.10;;;;;;;;;;10302181;28;20353;-83
2023/08/25 07:39:52;;;;;;;1.15;0.98;;;;;;;;;;10288683;28;20125;-84
2023/08/25 07:44:56;;;;;;;1.25;1.08;;;;;;;;;;10286805;28;20079;-84
2023/08/25 07:50:02;;;;;;;1.60;0.80;;;;;;;;;;10279149;28;20051;-84
2023/08/25 07:55:06;;;;;;;2.17;1.15;;;;;;;;;;10299405;28;20046;-85
2023/08/25 08:00:15;;;;;;;4.05;1.40;;;;;;;;;;10299516;28;20129;-84
2023/08/25 08:05:21;;;;;;;3.55;1.23;;;;;;;;;;10282228;28;20113;-84
2023/08/25 08:10:25;;;;;;;1.20;1.10;;;;;;;;;;10299415;28;20122;-85
2023/08/25 08:15:30;;;;;;;1.98;1.00;;;;;;;;;;10316464;28;20708;-85
2023/08/25 08:20:34;;;;;;;1.25;1.00;;;;;;;;;;10314412;28;20054;-84
2023/08/25 08:25:38;;;;;;;1.05;0.80;;;;;;;;;;10305942;28;20058;-84
2023/08/25 08:30:43;;;;;;;1.20;0.93;;;;;;;;;;10289353;28;20080;-85
2023/08/25 08:35:48;;;;;;;1.15;0.80;;;;;;;;;;10293529;28;20069;-85
2023/08/25 08:40:52;;;;;;;1.52;0.80;;;;;;;;;;10281314;28;20137;-84
2023/08/25 08:45:56;;;;;;;1.65;1.08;;;;;;;;;;10296944;28;20132;-86
2023/08/25 08:51:03;;;;;;;82.43;9.07;;;;;;;;;;10288142;28;20133;-85
2023/08/25 08:56:07;;;;;;;;;;;;;;;;;;10308941;28;20050;-84
2023/08/25 09:01:11;;;;;;;1.65;1.02;;;;;;;;;;10292882;28;20479;-84
2023/08/25 09:06:16;;;;;;;2.95;1.58;;;;;;;;;;10284152;28;20042;-85
2023/08/25 09:11:20;;;;;;;2.15;0.80;;;;;;;;;;10298152;28;20136;-85
2023/08/25 09:16:24;;;;;;;2.75;1.65;;;;;;;;;;10285229;28;20077;-84
2023/08/25 09:21:29;;;;;;;3.65;1.60;;;;;;;;;;10283975;28;20516;-85
2023/08/25 09:26:37;;;;;;;1.65;1.20;;;;;;;;;;10295909;28;20050;-87
2023/08/25 09:31:41;;;;;;;2.78;1.20;;;;;;;;;;10309214;28;20559;-85
2023/08/25 09:36:53;;;;;;;1.48;1.05;;;;;;;;;;10296948;28;20058;-83
2023/08/25 09:41:56;;;;;;;1.98;1.08;;;;;;;;;;10306583;28;20062;-84
2023/08/25 09:47:00;;;;;;;1.20;1.10;;;;;;;;;;10296048;28;20129;-86
2023/08/25 09:52:07;;;;;;;1.15;0.82;;;;;;;;;;10293880;28;20078;-84
2023/08/25 09:57:11;;;;;;;2.83;1.95;;;;;;;;;;10292289;28;20415;-84
2023/08/25 10:02:15;;;;;;;1.40;1.30;;;;;;;;;;10291060;28;20133;-83
2023/08/25 10:07:20;;;;;;;1.63;1.20;;;;;;;;;;10282517;28;20463;-84
2023/08/25 10:12:24;;;;;;;;;;;;;;;;;;10279047;28;20047;-83
2023/08/25 10:17:29;;;;;;;2.67;1.20;;;;;;;;;;10290676;28;20446;-85
2023/08/25 10:22:35;;;;;;;3.10;1.20;;;;;;;;;;10281691;28;20101;-85
2023/08/25 10:27:39;;;;;;;4.82;1.70;;;;;;;;;;10299310;28;20050;-86
2023/08/25 10:32:55;;;;;;;2.30;1.45;;;;;;;;;;10274257;28;20109;-83
2023/08/25 10:38:00;;;;;;;1.13;0.98;;;;;;;;;;10280030;28;20054;-86
2023/08/25 10:43:06;;;;;;;3.03;1.33;;;;;;;;;;10294939;28;20670;-86
2023/08/25 10:48:11;;;;;;;1.65;1.13;;;;;;;;;;10274523;28;20092;-85
2023/08/25 10:53:37;;;;;;;1.95;1.05;;;;;;;;;;10288273;28;20057;-85
2023/08/25 10:58:41;;;;;;;0.95;0.90;;;;;;;;;;10293730;28;20050;-84
2023/08/25 11:03:48;;;;;;;4.45;1.60;;;;;;;;;;10277043;28;20057;-85
2023/08/25 11:08:58;;;;;;;3.03;1.58;;;;;;;;;;10282312;28;20039;-84
2023/08/25 11:14:02;;;;;;;2.55;1.52;;;;;;;;;;10288698;28;20051;-84
2023/08/25 11:19:05;;;;;;;2.70;1.13;;;;;;;;;;10292006;28;20046;-85
2023/08/25 11:24:23;;;;;;;2.67;1.65;;;;;;;;;;10266677;28;20402;-83
2023/08/25 11:29:26;;;;;;;3.63;1.98;;;;;;;;;;10275931;28;20050;-84
2023/08/25 11:34:31;;;;;;;2.35;1.73;;;;;;;;;;10291358;28;20511;-83
2023/08/25 11:39:42;;;;;;;2.13;1.90;;;;;;;;;;10273015;28;20552;-84
2023/08/25 11:44:45;;;;;;;2.88;1.90;;;;;;;;;;10280778;28;20316;-84
2023/08/25 11:49:49;;;;;;;2.13;1.58;;;;;;;;;;10287840;28;20129;-84
2023/08/25 11:54:54;;;;;;;3.72;2.30;;;;;;;;;;10285620;28;20142;-85
2023/08/25 11:59:58;;;;;;;3.17;2.00;;;;;;;;;;10271254;28;20058;-83
2023/08/25 12:05:03;;;;;;;4.05;2.25;;;;;;;;;;10273978;28;20058;-84
2023/08/25 12:10:10;;;;;;;5.20;2.90;;;;;;;;;;10272484;28;20183;-84
2023/08/25 12:15:13;;;;;;;6.13;3.38;;;;;;;;;;10284013;28;20050;-85
2023/08/25 12:20:18;;;;;;;4.55;2.95;;;;;;;;;;10290005;28;20069;-85
2023/08/25 12:25:23;;;;;;;4.57;3.10;;;;;;;;;;10282427;28;20151;-84
2023/08/25 12:30:28;;;;;;;5.00;3.43;;;;;;;;;;10302397;28;20116;-83
2023/08/25 12:35:31;;;;;;;4.40;2.93;;;;;;;;;;10286492;28;20054;-84
2023/08/25 12:40:36;;;;;;;4.28;2.85;;;;;;;;;;10286962;28;20423;-84
2023/08/25 12:45:40;;;;;;;2.70;2.40;;;;;;;;;;10303417;28;20508;-83
2023/08/25 12:50:44;;;;;;;5.18;2.35;;;;;;;;;;10291767;28;20075;-84
2023/08/25 12:55:49;;;;;;;3.78;2.50;;;;;;;;;;10286846;28;20499;-84
2023/08/25 13:00:52;;;;;;;3.40;2.17;;;;;;;;;;10287393;28;20138;-84
2023/08/25 13:05:55;;;;;;;3.47;2.10;;;;;;;;;;10311868;23;20145;-81
2023/08/25 13:11:00;;;;;;;6.53;3.70;;;;;;;;;;10285076;28;20050;-81
2023/08/25 13:16:08;;;;;;;5.93;3.57;;;;;;;;;;10261548;28;20566;-81
2023/08/25 13:21:11;;;;;;;4.30;3.42;;;;;;;;;;10261631;28;20542;-81
2023/08/25 13:26:16;;;;;;;3.65;2.65;;;;;;;;;;10280544;28;20043;-80
2023/08/25 13:31:19;;;;;;;5.03;2.60;;;;;;;;;;10252973;28;20050;-80
2023/08/25 13:36:23;;;;;;;4.75;3.35;;;;;;;;;;10261623;28;20093;-80
2023/08/25 13:41:27;;;;;;;4.03;3.15;;;;;;;;;;10279422;28;20114;-80
2023/08/25 13:46:31;;;;;;;4.03;3.50;;;;;;;;;;10258889;28;20133;-81
2023/08/25 13:51:34;;;;;;;8.32;3.97;;;;;;;;;;10280322;28;20083;-81
2023/08/25 13:56:39;;;;;;;4.38;3.00;;;;;;;;;;10277907;28;20085;-80
2023/08/25 14:01:43;;;;;;;2.63;2.42;;;;;;;;;;10280801;28;20149;-81
2023/08/25 14:06:46;;;;;;;5.82;3.58;;;;;;;;;;10280875;28;20448;-80
2023/08/25 14:11:51;;;;;;;5.43;3.88;;;;;;;;;;10281426;28;20071;-80
2023/08/25 14:16:54;;;;;;;4.83;3.37;;;;;;;;;;10274463;28;20130;-80
2023/08/25 14:21:57;;;;;;;5.50;3.20;;;;;;;;;;10278364;28;20298;-81
2023/08/25 14:27:02;;;;;;;4.70;2.97;;;;;;;;;;10284422;28;20073;-80
2023/08/25 14:32:07;;;;;;;4.05;2.65;;;;;;;;;;10284328;28;20222;-80
2023/08/25 14:37:10;;;;;;;5.13;3.13;;;;;;;;;;10275736;28;20051;-80
2023/08/25 14:42:15;;;;;;;6.38;3.28;;;;;;;;;;10291187;28;20079;-81
2023/08/25 14:47:18;;;;;;;7.38;3.97;;;;;;;;;;10265782;28;20138;-80
2023/08/25 14:52:22;;;;;;;4.07;2.80;;;;;;;;;;10281539;28;20141;-80
2023/08/25 14:57:27;;;;;;;6.88;3.67;;;;;;;;;;10252715;28;20130;-81
2023/08/25 15:02:30;;;;;;;3.27;2.60;;;;;;;;;;10259034;28;20047;-80
2023/08/25 15:07:33;;;;;;;3.75;2.70;;;;;;;;;;10267748;28;20555;-81
2023/08/25 15:12:38;;;;;;;3.67;2.15;;;;;;;;;;10277636;28;20051;-80
2023/08/25 15:17:42;;;;;;;6.40;3.10;;;;;;;;;;10261944;28;20063;-80
2023/08/25 15:22:47;;;;;;;4.40;3.40;;;;;;;;;;10261185;28;20051;-80
2023/08/25 15:27:52;;;;;;;8.75;3.25;;;;;;;;;;10273273;28;20074;-81
2023/08/25 15:32:56;;;;;;;4.63;3.03;;;;;;;;;;10257436;28;20559;-80
2023/08/25 15:37:59;;;;;;;6.55;2.90;;;;;;;;;;10275866;28;20042;-80
2023/08/25 15:43:04;;;;;;;3.42;2.75;;;;;;;;;;10283116;28;20501;-81
2023/08/25 15:48:08;;;;;;;5.80;2.83;;;;;;;;;;10264731;28;20130;-80
2023/08/25 15:53:11;;;;;;;4.93;2.88;;;;;;;;;;10287485;28;20075;-81
2023/08/25 15:58:17;;;;;;;3.67;2.40;;;;;;;;;;10263465;28;20073;-80
2023/08/25 16:03:20;;;;;;;4.20;2.63;;;;;;;;;;10265436;28;20051;-80
2023/08/25 16:08:25;;;;;;;4.60;2.28;;;;;;;;;;10264018;28;20125;-81
2023/08/25 16:13:30;;;;;;;4.80;2.58;;;;;;;;;;10262742;28;20532;-80
2023/08/25 16:18:35;;;;;;;5.63;2.63;;;;;;;;;;10262881;28;20129;-81
2023/08/25 16:23:39;;;;;;;2.55;1.98;;;;;;;;;;10280861;28;20783;-80
2023/08/25 16:28:45;;;;;;;3.67;2.00;;;;;;;;;;10267508;28;20050;-80
2023/08/25 16:33:49;;;;;;;3.42;2.22;;;;;;;;;;10264569;28;20405;-81
2023/08/25 16:38:52;;;;;;;11.18;3.22;;;;;;;;;;10259255;28;20047;-81
2023/08/25 16:43:57;;;;;;;5.75;3.08;;;;;;;;;;10264647;28;20268;-83
2023/08/25 16:49:01;;;;;;;2.80;2.33;;;;;;;;;;10276850;28;20047;-82
2023/08/25 16:54:05;;;;;;;4.25;2.40;;;;;;;;;;10261558;28;20463;-87
2023/08/25 16:59:11;;;;;;;2.83;2.33;;;;;;;;;;10262984;28;20575;-84
2023/08/25 17:04:14;;;;;;;4.73;1.87;;;;;;;;;;10262996;28;20039;-83
2023/08/25 17:09:17;;;;;;;4.22;2.25;;;;;;;;;;10262478;28;20058;-86
2023/08/25 17:14:22;;;;;;;4.10;2.60;;;;;;;;;;10286463;28;20046;-82
2023/08/25 17:19:26;;;;;;;2.67;2.10;;;;;;;;;;10264554;28;20085;-85
2023/08/25 17:24:30;;;;;;;6.45;2.88;;;;;;;;;;10275642;28;20790;-83
2023/08/25 17:29:35;;;;;;;3.95;2.65;;;;;;;;;;10293804;28;20407;-82
2023/08/25 17:34:38;;;;;;;5.57;2.90;;;;;;;;;;10295401;28;20053;-83
2023/08/25 17:39:41;;;;;;;5.57;3.45;;;;;;;;;;10280990;28;20075;-85
2023/08/25 17:44:46;;;;;;;2.63;2.10;;;;;;;;;;10280250;28;20419;-85
2023/08/25 17:49:50;;;;;;;4.90;2.20;;;;;;;;;;10259990;28;20059;-87
2023/08/25 17:54:53;;;;;;;2.38;1.90;;;;;;;;;;10270903;28;20135;-81
2023/08/25 17:59:58;;;;;;;2.85;1.77;;;;;;;;;;10255823;28;20516;-81
2023/08/25 18:05:02;;;;;;;3.70;1.57;;;;;;;;;;10242606;28;20054;-81
2023/08/25 18:10:08;;;;;;;2.03;1.55;;;;;;;;;;10255825;28;20556;-81
2023/08/25 18:15:13;;;;;;;3.25;1.45;;;;;;;;;;10265674;28;20469;-81
2023/08/25 18:20:16;;;;;;;1.57;1.43;;;;;;;;;;10254885;28;20133;-80
2023/08/25 18:25:20;;;;;;;1.83;1.70;;;;;;;;;;10255872;28;20110;-80
2023/08/25 18:30:25;;;;;;;5.80;2.50;;;;;;;;;;10260449;28;20085;-80
2023/08/25 18:35:29;;;;;;;3.25;2.10;;;;;;;;;;10266870;28;20482;-80
2023/08/25 18:40:32;;;;;;;2.45;1.65;;;;;;;;;;10255579;28;20102;-80
2023/08/25 18:45:37;;;;;;;4.18;1.95;;;;;;;;;;10272286;28;20130;-80
2023/08/25 18:50:41;;;;;;;2.70;1.77;;;;;;;;;;10273899;28;20078;-80
2023/08/25 18:55:49;;;;;;;2.17;1.55;;;;;;;;;;10269128;28;20055;-80
2023/08/25 19:00:53;;;;;;;1.55;1.45;;;;;;;;;;10256386;28;20051;-80
2023/08/25 19:06:01;;;;;;;1.67;1.50;;;;;;;;;;10270808;28;20073;-80
2023/08/25 19:11:05;;;;;;;2.67;1.98;;;;;;;;;;10256607;28;20070;-80
2023/08/25 19:16:10;;;;;;;2.45;1.65;;;;;;;;;;10275517;28;20527;-80
2023/08/25 19:21:15;;;;;;;2.57;1.50;;;;;;;;;;10278045;28;20074;-80
2023/08/25 19:26:18;;;;;;;1.73;1.60;;;;;;;;;;10250112;28;20141;-81
2023/08/25 19:31:23;;;;;;;2.55;1.75;;;;;;;;;;10260421;28;20130;-80
2023/08/25 19:36:27;;;;;;;3.38;1.63;;;;;;;;;;10270162;28;20078;-80
2023/08/25 19:41:32;;;;;;;2.25;1.33;;;;;;;;;;10258954;28;20130;-80
2023/08/25 19:46:36;;;;;;;1.92;1.70;;;;;;;;;;10271205;28;20074;-80
2023/08/25 19:51:42;;;;;;;1.90;1.70;;;;;;;;;;10262647;28;20121;-80
2023/08/25 19:56:45;;;;;;;2.10;1.70;;;;;;;;;;10255101;28;20047;-80
2023/08/25 20:01:50;;;;;;;2.25;1.80;;;;;;;;;;10281621;28;20054;-80
2023/08/25 20:06:54;;;;;;;2.00;1.67;;;;;;;;;;10256713;28;20438;-80
2023/08/25 20:11:57;;;;;;;1.92;1.52;;;;;;;;;;10260983;28;20568;-80
2023/08/25 20:17:02;;;;;;;2.13;1.77;;;;;;;;;;10257077;28;20057;-80
2023/08/25 20:22:06;;;;;;;2.50;1.67;;;;;;;;;;10263889;28;20146;-81
2023/08/25 20:27:09;;;;;;;2.92;1.60;;;;;;;;;;10274785;28;20071;-81
2023/08/25 20:32:13;;;;;;;1.85;1.60;;;;;;;;;;10259675;28;20050;-80
2023/08/25 20:37:19;;;;;;;2.97;2.10;;;;;;;;;;10258256;28;20054;-80
2023/08/25 20:42:22;;;;;;;3.55;2.17;;;;;;;;;;10261504;28;20380;-80
2023/08/25 20:47:27;;;;;;;2.65;1.88;;;;;;;;;;10256907;28;20118;-80
2023/08/25 20:52:31;;;;;;;3.97;2.30;;;;;;;;;;10262863;28;20126;-81
2023/08/25 20:57:34;;;;;;;3.80;2.00;;;;;;;;;;10277928;28;20137;-81
2023/08/25 21:02:40;;;;;;;4.05;1.60;;;;;;;;;;10267647;28;20050;-80
2023/08/25 21:07:44;;;;;;;2.72;1.90;;;;;;;;;;10254365;28;20054;-80
2023/08/25 21:12:48;;;;;;;3.20;2.22;;;;;;;;;;10261359;28;20505;-80
2023/08/25 21:17:53;;;;;;;5.00;3.05;;;;;;;;;;10256307;28;20423;-81
2023/08/25 21:22:57;;;;;;;2.70;2.20;;;;;;;;;;10258761;28;20464;-80
2023/08/25 21:28:00;;;;;;;2.40;1.83;;;;;;;;;;10274742;28;20046;-80
2023/08/25 21:33:05;;;;;;;5.38;1.80;;;;;;;;;;10273915;28;20098;-80
2023/08/25 21:38:09;;;;;;;3.83;1.97;;;;;;;;;;10272107;28;20074;-80
2023/08/25 21:43:13;;;;;;;2.75;1.80;;;;;;;;;;10279190;28;20405;-80
2023/08/25 21:48:18;;;;;;;2.58;1.77;;;;;;;;;;10256956;28;20066;-80
2023/08/25 21:53:22;;;;;;;2.40;1.90;;;;;;;;;;10260302;28;20039;-80
2023/08/25 21:58:25;;;;;;;2.25;1.63;;;;;;;;;;10272415;28;20161;-80
2023/08/25 22:03:30;;;;;;;1.95;1.80;;;;;;;;;;10257010;28;20481;-80
2023/08/25 22:08:33;;;;;;;2.13;1.93;;;;;;;;;;10251278;28;20460;-80
2023/08/25 22:13:37;;;;;;;2.70;1.85;;;;;;;;;;10274390;28;20039;-80
2023/08/25 22:18:42;;;;;;;1.65;1.48;;;;;;;;;;10256546;28;20050;-80
2023/08/25 22:23:47;;;;;;;5.23;3.90;;;;;;;;;;10259139;28;20133;-80
2023/08/25 22:28:50;;;;;;;6.65;3.45;;;;;;;;;;10260675;28;20670;-80
2023/08/25 22:33:55;;;;;;;6.40;3.72;;;;;;;;;;10257861;28;20141;-80
2023/08/25 22:39:02;;;;;;;5.82;3.60;;;;;;;;;;10273585;28;20110;-80
2023/08/25 22:44:06;;;;;;;6.07;3.55;;;;;;;;;;10271643;28;20071;-80
2023/08/25 22:49:11;;;;;;;6.03;4.72;;;;;;;;;;10256347;28;20507;-80
2023/08/25 22:54:15;;;;;;;6.13;3.78;;;;;;;;;;10254183;28;20134;-80
2023/08/25 22:59:18;;;;;;;4.65;3.70;;;;;;;;;;10281625;28;20117;-80
2023/08/25 23:04:23;;;;;;;3.75;3.13;;;;;;;;;;10261492;28;20138;-80
2023/08/25 23:09:27;;;;;;;5.63;4.22;;;;;;;;;;10276486;28;20122;-81
2023/08/25 23:14:31;;;;;;;5.55;4.40;;;;;;;;;;10261688;28;20047;-81
2023/08/25 23:19:36;;;;;;;7.75;4.75;;;;;;;;;;10249907;28;20134;-80
2023/08/25 23:24:43;;;;;;;7.07;4.45;;;;;;;;;;10249986;28;20055;-80
2023/08/25 23:29:47;;;;;;;4.68;3.58;;;;;;;;;;10273891;28;20054;-80
2023/08/25 23:34:52;;;;;;;5.30;3.63;;;;;;;;;;10256443;28;20133;-81
2023/08/25 23:39:56;;;;;;;3.85;3.47;;;;;;;;;;10277242;28;20066;-80
2023/08/25 23:44:59;;;;;;;5.35;3.90;;;;;;;;;;10277312;28;20501;-81
2023/08/25 23:50:05;;;;;;;7.93;4.18;;;;;;;;;;10277236;28;20536;-81
2023/08/25 23:55:08;;;;;;;3.25;2.70;;;;;;;;;;10273612;28;20063;-80
